Time;durP1;ratioP1;P1;durP2;ratioP2;P2;SDS_P1;SDS_P2;PMS_P1;PMS_P2;Temp;Humidity;BMP_temperature;BMP_pressure;BME280_temperature;BME280_humidity;BME280_pressure;Samples;Min_cycle;Max_cycle;Signal;HPM_P1;HPM_P2
2023/10/27 00:00:42;;;;;;;4.73;1.83;;;14.40;99.90;;;;;;5043580;28;20608;-62
2023/10/27 00:03:09;;;;;;;5.97;2.33;;;14.40;99.90;;;;;;5041653;28;20257;-61
2023/10/27 00:05:35;;;;;;;5.43;1.70;;;14.40;99.90;;;;;;5040443;28;20710;-62
2023/10/27 00:08:04;;;;;;;4.87;1.83;;;14.40;99.90;;;;;;5041286;28;20238;-62
2023/10/27 00:10:31;;;;;;;4.60;2.30;;;14.40;99.90;;;;;;5043055;28;20209;-62
2023/10/27 00:12:58;;;;;;;8.87;3.00;;;14.40;99.90;;;;;;5042535;28;20210;-62
2023/10/27 00:15:25;;;;;;;6.03;2.90;;;14.30;99.90;;;;;;5040538;28;20198;-62
2023/10/27 00:17:51;;;;;;;5.73;2.97;;;14.20;99.90;;;;;;5040519;28;20232;-61
2023/10/27 00:20:18;;;;;;;7.67;2.33;;;14.20;99.90;;;;;;5031750;28;20213;-60
2023/10/27 00:22:45;;;;;;;5.87;2.07;;;14.20;99.90;;;;;;5040005;28;20247;-61
2023/10/27 00:25:13;;;;;;;5.17;2.03;;;14.10;99.90;;;;;;5042397;28;20207;-62
2023/10/27 00:27:40;;;;;;;3.77;2.10;;;14.10;99.90;;;;;;5043237;28;20261;-62
2023/10/27 00:30:09;;;;;;;6.90;2.70;;;14.10;99.90;;;;;;5040986;28;20591;-62
2023/10/27 00:32:36;;;;;;;5.00;2.23;;;14.10;99.90;;;;;;5039738;28;20213;-61
2023/10/27 00:35:04;;;;;;;5.37;2.50;;;14.10;99.90;;;;;;5041096;28;20301;-60
2023/10/27 00:37:32;;;;;;;4.60;2.27;;;14.10;99.90;;;;;;5043115;28;20659;-60
2023/10/27 00:39:59;;;;;;;4.00;2.27;;;14.10;99.90;;;;;;5042522;28;20213;-60
2023/10/27 00:42:27;;;;;;;4.37;2.10;;;14.10;99.90;;;;;;5039349;28;20599;-61
2023/10/27 00:44:54;;;;;;;3.60;2.30;;;14.10;99.90;;;;;;5039577;28;20205;-61
2023/10/27 00:47:21;;;;;;;3.57;1.90;;;14.00;99.90;;;;;;5042863;28;20592;-60
2023/10/27 00:49:48;;;;;;;5.17;2.40;;;14.00;99.90;;;;;;5042887;28;20524;-61
2023/10/27 00:52:16;;;;;;;3.00;1.90;;;13.90;99.90;;;;;;5039556;28;20203;-60
2023/10/27 00:54:46;;;;;;;3.73;2.07;;;14.00;99.90;;;;;;5039470;28;20305;-61
2023/10/27 00:57:14;;;;;;;3.10;1.83;;;14.00;99.90;;;;;;5042224;28;20218;-61
2023/10/27 00:59:42;;;;;;;4.47;2.20;;;13.90;99.90;;;;;;5042779;28;20216;-61
2023/10/27 01:02:10;;;;;;;3.53;2.20;;;13.90;99.90;;;;;;5040380;28;20213;-61
2023/10/27 01:04:36;;;;;;;4.60;2.17;;;13.90;99.90;;;;;;5039228;28;20233;-61
2023/10/27 01:07:04;;;;;;;6.70;2.00;;;13.80;99.90;;;;;;5040318;28;20232;-61
2023/10/27 01:09:30;;;;;;;4.80;1.80;;;13.70;99.90;;;;;;5042370;28;20221;-61
2023/10/27 01:11:57;;;;;;;3.67;2.23;;;13.70;99.90;;;;;;5041843;28;20205;-61
2023/10/27 01:14:24;;;;;;;3.80;1.80;;;13.70;99.90;;;;;;5038935;28;20225;-61
2023/10/27 01:16:52;;;;;;;4.70;1.63;;;13.70;99.90;;;;;;5038881;28;20675;-61
2023/10/27 01:19:19;;;;;;;2.87;1.80;;;13.70;99.90;;;;;;5030806;28;20645;-62
2023/10/27 01:21:46;;;;;;;3.77;1.70;;;13.60;99.90;;;;;;5038631;28;20286;-61
2023/10/27 01:24:14;;;;;;;3.47;1.80;;;13.60;99.90;;;;;;5041665;28;20206;-62
2023/10/27 01:26:40;;;;;;;3.97;1.87;;;13.60;99.90;;;;;;5042815;28;20209;-63
2023/10/27 01:29:07;;;;;;;3.57;1.70;;;13.60;99.90;;;;;;5040826;28;20231;-62
2023/10/27 01:31:34;;;;;;;2.73;1.73;;;13.60;99.90;;;;;;5039593;28;20210;-61
2023/10/27 01:34:01;;;;;;;4.27;1.80;;;13.60;99.90;;;;;;5039605;28;20248;-60
2023/10/27 01:36:27;;;;;;;3.30;1.30;;;13.60;99.90;;;;;;5042721;28;20213;-61
2023/10/27 01:38:55;;;;;;;4.10;1.50;;;13.60;99.90;;;;;;5042311;28;20221;-61
2023/10/27 01:41:23;;;;;;;6.17;1.50;;;13.60;99.90;;;;;;5030774;28;20695;-60
2023/10/27 01:43:50;;;;;;;5.00;1.53;;;13.60;99.90;;;;;;5039048;28;20206;-60
2023/10/27 01:46:16;;;;;;;1.80;1.20;;;13.60;99.90;;;;;;5041827;28;20206;-60
2023/10/27 01:48:43;;;;;;;3.50;1.47;;;13.60;99.90;;;;;;5041948;28;20236;-62
2023/10/27 01:51:10;;;;;;;4.57;1.90;;;13.60;99.90;;;;;;5040297;28;20209;-61
2023/10/27 01:53:36;;;;;;;4.60;1.50;;;13.50;99.90;;;;;;5038916;28;20297;-61
2023/10/27 01:56:03;;;;;;;2.63;1.40;;;13.40;99.90;;;;;;5039900;28;20210;-61
2023/10/27 01:58:31;;;;;;;5.50;1.50;;;13.50;99.90;;;;;;5042134;28;20313;-61
2023/10/27 02:00:58;;;;;;;2.13;1.40;;;13.50;99.90;;;;;;5041370;28;20269;-61
2023/10/27 02:03:25;;;;;;;3.90;1.50;;;13.50;99.90;;;;;;5038797;28;20230;-61
2023/10/27 02:05:52;;;;;;;3.50;1.57;;;13.50;99.90;;;;;;5038882;28;20217;-62
2023/10/27 02:08:18;;;;;;;2.90;1.40;;;13.50;99.90;;;;;;5041568;28;20226;-61
2023/10/27 02:10:45;;;;;;;5.33;1.53;;;13.60;99.90;;;;;;5041891;28;20210;-61
2023/10/27 02:13:12;;;;;;;4.27;1.40;;;13.50;99.90;;;;;;5039713;28;20205;-61
2023/10/27 02:15:40;;;;;;;3.07;1.30;;;13.50;99.90;;;;;;5038401;28;20233;-61
2023/10/27 02:18:06;;;;;;;2.77;1.30;;;13.40;99.90;;;;;;5040062;28;20237;-60
2023/10/27 02:20:33;;;;;;;6.13;1.70;;;13.40;99.90;;;;;;5042011;28;20209;-62
2023/10/27 02:23:00;;;;;;;3.27;1.40;;;13.40;99.90;;;;;;5041392;28;20213;-62
2023/10/27 02:25:26;;;;;;;4.23;1.30;;;13.30;99.90;;;;;;5038692;28;20311;-62
2023/10/27 02:27:53;;;;;;;3.33;1.43;;;13.30;99.90;;;;;;5038406;28;20716;-62
2023/10/27 02:30:20;;;;;;;2.90;1.40;;;13.30;99.90;;;;;;5041621;28;20206;-62
2023/10/27 02:32:48;;;;;;;5.13;1.47;;;13.30;99.90;;;;;;5044199;28;20214;-61
2023/10/27 02:35:15;;;;;;;4.83;1.33;;;13.30;99.90;;;;;;5043061;28;20304;-62
2023/10/27 02:37:42;;;;;;;1.93;0.80;;;13.20;99.90;;;;;;5041968;28;20226;-62
2023/10/27 02:40:09;;;;;;;2.73;1.27;;;13.30;99.90;;;;;;5043260;28;20213;-61
2023/10/27 02:42:38;;;;;;;5.00;1.60;;;13.30;99.90;;;;;;5045168;28;20206;-60
2023/10/27 02:45:06;;;;;;;2.13;1.30;;;13.30;99.90;;;;;;5044273;28;20212;-60
2023/10/27 02:47:33;;;;;;;2.43;1.00;;;13.30;99.90;;;;;;5041974;28;20298;-60
2023/10/27 02:50:01;;;;;;;2.63;1.10;;;13.30;99.90;;;;;;5042202;28;20209;-61
2023/10/27 02:52:28;;;;;;;3.93;1.10;;;13.40;99.90;;;;;;5045492;28;20292;-61
2023/10/27 02:54:55;;;;;;;2.00;1.00;;;13.40;99.90;;;;;;5045809;28;20225;-60
2023/10/27 02:57:22;;;;;;;4.40;1.47;;;13.30;99.90;;;;;;5034134;28;20589;-60
2023/10/27 02:59:48;;;;;;;2.63;1.30;;;13.30;99.90;;;;;;5042312;28;20210;-60
2023/10/27 03:02:15;;;;;;;2.03;1.20;;;13.20;99.90;;;;;;5044440;28;20214;-60
2023/10/27 03:04:42;;;;;;;2.63;1.13;;;13.30;99.90;;;;;;5045545;28;20202;-61
2023/10/27 03:07:10;;;;;;;3.60;2.07;;;13.20;99.90;;;;;;5043370;28;20694;-61
2023/10/27 03:09:37;;;;;;;2.30;1.13;;;13.20;99.90;;;;;;5041495;28;20233;-61
2023/10/27 03:12:04;;;;;;;3.60;1.30;;;13.10;99.90;;;;;;5041988;28;20221;-61
2023/10/27 03:14:31;;;;;;;2.33;0.93;;;13.10;99.90;;;;;;5044602;28;20642;-62
2023/10/27 03:16:58;;;;;;;2.17;1.13;;;13.10;99.90;;;;;;5044611;28;20206;-61
2023/10/27 03:19:24;;;;;;;2.77;1.10;;;13.00;99.90;;;;;;5041341;28;20230;-61
2023/10/27 03:21:51;;;;;;;2.10;1.07;;;13.00;99.90;;;;;;5041161;28;20640;-61
2023/10/27 03:24:19;;;;;;;3.03;1.10;;;12.90;99.90;;;;;;5043725;28;20209;-61
2023/10/27 03:26:46;;;;;;;4.50;1.13;;;13.00;99.90;;;;;;5044681;28;20214;-62
2023/10/27 03:29:12;;;;;;;3.27;1.00;;;12.90;99.90;;;;;;5042259;28;20606;-61
2023/10/27 03:31:39;;;;;;;2.77;1.30;;;12.90;99.90;;;;;;5041079;28;20302;-61
2023/10/27 03:34:06;;;;;;;3.20;1.80;;;12.80;99.90;;;;;;5041875;28;20675;-62
2023/10/27 03:36:32;;;;;;;4.73;2.60;;;12.80;99.90;;;;;;5044629;28;20279;-62
2023/10/27 03:38:59;;;;;;;3.27;1.63;;;12.80;99.90;;;;;;5044540;28;20333;-61
2023/10/27 03:41:27;;;;;;;2.57;1.07;;;12.80;99.90;;;;;;5040916;28;20203;-61
2023/10/27 03:43:54;;;;;;;2.60;1.20;;;12.80;99.90;;;;;;5040271;28;20706;-62
2023/10/27 03:46:20;;;;;;;4.27;1.83;;;12.80;99.90;;;;;;5043874;28;20198;-61
2023/10/27 03:48:48;;;;;;;2.20;1.10;;;12.90;99.90;;;;;;5044158;28;20797;-61
2023/10/27 03:51:15;;;;;;;5.53;1.00;;;12.80;99.90;;;;;;5041580;28;20248;-61
2023/10/27 03:53:42;;;;;;;2.83;1.70;;;12.90;99.90;;;;;;5040519;28;20694;-61
2023/10/27 03:56:09;;;;;;;2.60;1.00;;;12.90;99.90;;;;;;5041973;28;20229;-61
2023/10/27 03:58:37;;;;;;;3.70;1.30;;;12.90;99.90;;;;;;5043910;28;20237;-61
2023/10/27 04:01:05;;;;;;;1.73;0.97;;;12.90;99.90;;;;;;5043021;28;20288;-61
2023/10/27 04:03:32;;;;;;;5.43;1.10;;;12.90;99.90;;;;;;5040591;28;20207;-61
2023/10/27 04:05:59;;;;;;;2.30;1.07;;;12.90;99.90;;;;;;5040193;28;20614;-62
2023/10/27 04:08:25;;;;;;;2.23;1.00;;;12.80;99.90;;;;;;5058417;23;20272;-58
2023/10/27 04:10:53;;;;;;;3.50;2.23;;;12.80;99.90;;;;;;5043827;28;20233;-59
2023/10/27 04:13:19;;;;;;;2.47;1.30;;;12.70;99.90;;;;;;5040810;28;20680;-59
2023/10/27 04:15:47;;;;;;;4.20;2.80;;;12.60;99.90;;;;;;5047009;28;20222;-59
2023/10/27 04:18:14;;;;;;;2.03;1.27;;;12.60;99.90;;;;;;5041432;28;20680;-60
2023/10/27 04:20:41;;;;;;;2.40;1.37;;;12.60;99.90;;;;;;5040050;28;20248;-59
2023/10/27 04:23:09;;;;;;;2.47;1.37;;;12.60;99.90;;;;;;5041312;28;20214;-59
2023/10/27 04:25:36;;;;;;;4.43;2.17;;;12.70;99.90;;;;;;5043406;28;20688;-60
2023/10/27 04:28:04;;;;;;;3.10;1.80;;;12.60;99.90;;;;;;5042967;28;20221;-58
2023/10/27 04:30:31;;;;;;;3.47;2.27;;;12.70;99.90;;;;;;5039925;28;20285;-60
2023/10/27 04:33:00;;;;;;;3.87;1.63;;;12.70;99.90;;;;;;5040049;28;20210;-58
2023/10/27 04:35:26;;;;;;;2.90;1.40;;;12.80;99.90;;;;;;5043244;28;20217;-60
2023/10/27 04:37:53;;;;;;;2.50;1.90;;;12.70;99.90;;;;;;5043224;28;20230;-60
2023/10/27 04:40:22;;;;;;;3.60;2.60;;;12.80;99.90;;;;;;5040385;28;20365;-58
2023/10/27 04:42:49;;;;;;;3.73;2.40;;;12.90;99.90;;;;;;5039889;28;20210;-59
2023/10/27 04:45:16;;;;;;;3.97;1.73;;;12.90;99.90;;;;;;5042034;28;20206;-58
2023/10/27 04:47:43;;;;;;;2.73;1.80;;;12.90;99.90;;;;;;5042980;28;20252;-61
2023/10/27 04:50:11;;;;;;;4.20;1.40;;;13.00;99.90;;;;;;5041678;28;20255;-59
2023/10/27 04:52:38;;;;;;;2.60;1.40;;;13.00;99.90;;;;;;5039474;28;20665;-58
2023/10/27 04:55:06;;;;;;;2.57;1.70;;;13.00;99.90;;;;;;5039506;28;20266;-59
2023/10/27 04:57:32;;;;;;;1.87;0.90;;;13.10;99.90;;;;;;5043152;28;20205;-58
2023/10/27 04:59:59;;;;;;;2.00;1.10;;;13.10;99.90;;;;;;5043219;28;20210;-59
2023/10/27 05:02:26;;;;;;;2.73;1.10;;;13.20;99.90;;;;;;5031116;28;20206;-58
2023/10/27 05:04:53;;;;;;;4.57;2.20;;;13.20;99.90;;;;;;5039396;28;20213;-59
2023/10/27 05:07:21;;;;;;;3.53;2.00;;;13.20;99.90;;;;;;5042256;28;20205;-58
2023/10/27 05:09:49;;;;;;;3.13;1.60;;;13.20;99.90;;;;;;5042813;28;20237;-59
2023/10/27 05:12:16;;;;;;;3.90;1.93;;;13.30;99.90;;;;;;5040443;28;20710;-59
2023/10/27 05:14:43;;;;;;;6.77;1.40;;;13.30;99.90;;;;;;5038857;28;20210;-58
2023/10/27 05:17:10;;;;;;;2.50;1.20;;;13.30;99.90;;;;;;5040315;28;20206;-59
2023/10/27 05:19:36;;;;;;;1.90;1.03;;;13.20;99.90;;;;;;5042642;28;20288;-58
2023/10/27 05:22:05;;;;;;;2.80;1.30;;;13.20;99.90;;;;;;5042189;28;20205;-58
2023/10/27 05:24:33;;;;;;;2.57;1.30;;;13.20;99.90;;;;;;5039262;28;20229;-58
2023/10/27 05:27:00;;;;;;;7.60;4.37;;;13.10;99.90;;;;;;5039176;28;20206;-58
2023/10/27 05:29:27;;;;;;;3.10;1.90;;;13.20;99.90;;;;;;5031045;28;20221;-59
2023/10/27 05:31:54;;;;;;;3.67;1.47;;;13.20;99.90;;;;;;5039090;28;20217;-59
2023/10/27 05:34:21;;;;;;;2.03;1.07;;;13.30;99.90;;;;;;5041931;28;20213;-59
2023/10/27 05:36:47;;;;;;;4.23;1.30;;;13.20;99.90;;;;;;5042323;28;20225;-58
2023/10/27 05:39:17;;;;;;;2.23;1.40;;;13.20;99.90;;;;;;5040661;28;20232;-58
2023/10/27 05:41:46;;;;;;;1.47;0.90;;;13.20;99.90;;;;;;5038769;28;20244;-58
2023/10/27 05:44:12;;;;;;;2.10;0.93;;;13.20;99.90;;;;;;5040736;28;20206;-58
2023/10/27 05:46:38;;;;;;;2.40;1.10;;;13.20;99.90;;;;;;5042659;28;20204;-58
2023/10/27 05:49:05;;;;;;;4.37;1.10;;;13.00;99.90;;;;;;5041696;28;20217;-58
2023/10/27 05:51:32;;;;;;;3.70;1.10;;;13.00;99.90;;;;;;5038850;28;20210;-59
2023/10/27 05:53:59;;;;;;;3.40;1.03;;;12.90;99.90;;;;;;5039024;28;20256;-58
2023/10/27 05:56:27;;;;;;;2.60;1.23;;;12.90;99.90;;;;;;5041923;28;20218;-57
2023/10/27 05:58:55;;;;;;;4.30;1.90;;;12.90;99.90;;;;;;5042258;28;20295;-57
2023/10/27 06:01:21;;;;;;;4.10;1.10;;;13.00;99.90;;;;;;5039519;28;20201;-57
2023/10/27 06:03:48;;;;;;;3.90;1.27;;;13.10;99.90;;;;;;5038908;28;20206;-58
2023/10/27 06:06:15;;;;;;;1.70;0.90;;;13.10;99.90;;;;;;5040340;28;20731;-57
2023/10/27 06:08:44;;;;;;;2.90;0.93;;;13.20;99.90;;;;;;5045826;28;20234;-56
2023/10/27 06:11:10;;;;;;;3.57;1.00;;;13.20;99.90;;;;;;5044505;28;20637;-58
2023/10/27 06:13:38;;;;;;;2.30;1.23;;;13.20;99.90;;;;;;5042644;28;20214;-57
2023/10/27 06:16:07;;;;;;;3.20;1.40;;;13.30;99.90;;;;;;5042601;28;20233;-58
2023/10/27 06:18:34;;;;;;;3.57;0.97;;;13.30;99.90;;;;;;5045741;28;20592;-56
2023/10/27 06:21:01;;;;;;;2.70;1.10;;;13.30;99.90;;;;;;5045802;28;20216;-56
2023/10/27 06:23:28;;;;;;;2.93;1.00;;;13.30;99.90;;;;;;5034010;28;20675;-57
2023/10/27 06:25:55;;;;;;;1.73;1.17;;;13.30;99.90;;;;;;5042384;28;20202;-59
2023/10/27 06:28:21;;;;;;;1.80;0.67;;;13.40;99.90;;;;;;5044470;28;20742;-56
2023/10/27 06:30:48;;;;;;;3.57;1.20;;;13.30;99.90;;;;;;5045894;28;20202;-56
2023/10/27 06:33:16;;;;;;;4.13;0.73;;;13.30;99.90;;;;;;5043921;28;20677;-58
2023/10/27 06:35:43;;;;;;;2.97;0.80;;;13.20;99.90;;;;;;5041990;28;20222;-57
2023/10/27 06:38:10;;;;;;;4.33;1.00;;;13.10;99.90;;;;;;5042648;28;20299;-56
2023/10/27 06:40:36;;;;;;;1.27;0.70;;;13.10;99.90;;;;;;5045645;28;20545;-56
2023/10/27 06:43:03;;;;;;;1.63;0.73;;;13.20;99.90;;;;;;5045366;28;20756;-57
2023/10/27 06:45:30;;;;;;;1.40;0.57;;;13.20;99.90;;;;;;5034260;28;20198;-57
2023/10/27 06:47:57;;;;;;;2.67;1.03;;;13.10;99.90;;;;;;5041853;28;20261;-58
2023/10/27 06:50:25;;;;;;;1.40;1.00;;;13.10;99.90;;;;;;5044414;28;20221;-57
2023/10/27 06:52:52;;;;;;;3.33;1.60;;;13.20;99.90;;;;;;5045259;28;20217;-57
2023/10/27 06:55:19;;;;;;;3.90;2.80;;;13.30;99.90;;;;;;5043075;28;20209;-56
2023/10/27 06:57:45;;;;;;;4.43;2.00;;;13.30;99.90;;;;;;5042087;28;20225;-57
2023/10/27 07:00:12;;;;;;;2.57;1.33;;;13.30;99.90;;;;;;5042566;28;20237;-57
2023/10/27 07:02:39;;;;;;;2.77;1.57;;;13.30;99.90;;;;;;5045094;28;20254;-58
2023/10/27 07:05:08;;;;;;;3.60;1.43;;;13.30;99.90;;;;;;5045217;28;20225;-57
2023/10/27 07:07:36;;;;;;;4.67;1.90;;;13.40;99.90;;;;;;5041649;28;20884;-57
2023/10/27 07:10:04;;;;;;;1.57;1.47;;;13.40;99.90;;;;;;5041725;28;20206;-57
2023/10/27 07:12:31;;;;;;;2.07;1.40;;;13.40;99.90;;;;;;5033630;28;20590;-56
2023/10/27 07:14:57;;;;;;;2.23;0.90;;;13.50;99.90;;;;;;5041361;28;20237;-55
2023/10/27 07:17:24;;;;;;;3.40;1.00;;;13.50;99.90;;;;;;5043878;28;20279;-56
2023/10/27 07:19:51;;;;;;;2.00;1.10;;;13.50;99.90;;;;;;5043682;28;20316;-58
2023/10/27 07:22:19;;;;;;;2.63;1.00;;;13.60;99.90;;;;;;5043279;28;20205;-57
2023/10/27 07:24:47;;;;;;;3.80;0.90;;;13.70;99.90;;;;;;5041443;28;20248;-57
2023/10/27 07:27:14;;;;;;;2.47;1.07;;;13.80;99.90;;;;;;5042402;28;20252;-57
2023/10/27 07:29:41;;;;;;;4.37;1.03;;;13.80;99.90;;;;;;5044749;28;20236;-56
2023/10/27 07:32:08;;;;;;;4.07;2.43;;;13.80;99.90;;;;;;5043808;28;20213;-58
2023/10/27 07:34:35;;;;;;;2.60;1.30;;;13.90;99.90;;;;;;5041301;28;20198;-58
2023/10/27 07:37:04;;;;;;;1.57;0.90;;;13.90;99.90;;;;;;5041289;28;20222;-56
2023/10/27 07:39:30;;;;;;;1.67;1.10;;;14.00;99.90;;;;;;5044435;28;20647;-56
2023/10/27 07:41:58;;;;;;;2.97;1.40;;;14.00;99.90;;;;;;5044244;28;20202;-55
2023/10/27 07:44:25;;;;;;;4.53;3.07;;;14.10;99.90;;;;;;5041456;28;20210;-55
2023/10/27 07:46:53;;;;;;;3.63;2.10;;;14.20;99.90;;;;;;5040468;28;20206;-55
2023/10/27 07:49:20;;;;;;;6.57;1.30;;;14.30;99.90;;;;;;5042612;28;20618;-55
2023/10/27 07:51:48;;;;;;;2.07;1.10;;;14.30;99.90;;;;;;5044036;28;20206;-56
2023/10/27 07:54:15;;;;;;;9.57;1.50;;;14.30;99.90;;;;;;5042773;28;20565;-56
2023/10/27 07:56:41;;;;;;;3.43;1.27;;;14.40;99.90;;;;;;5040682;28;20248;-57
2023/10/27 07:59:09;;;;;;;2.47;0.90;;;14.40;99.90;;;;;;5040871;28;20320;-57
2023/10/27 08:01:36;;;;;;;2.87;1.03;;;14.40;99.90;;;;;;5044235;28;20213;-58
2023/10/27 08:04:05;;;;;;;2.93;1.10;;;14.50;99.90;;;;;;5044262;28;20328;-57
2023/10/27 08:06:32;;;;;;;2.00;0.90;;;14.50;99.90;;;;;;5032699;28;20253;-56
2023/10/27 08:08:59;;;;;;;4.43;1.50;;;14.50;99.90;;;;;;5040252;28;20237;-58
2023/10/27 08:11:26;;;;;;;1.40;0.90;;;14.60;99.90;;;;;;5042956;28;20289;-57
2023/10/27 08:13:53;;;;;;;1.90;1.30;;;14.60;99.90;;;;;;5043598;28;20206;-58
2023/10/27 08:16:21;;;;;;;2.43;0.93;;;14.60;99.90;;;;;;5041685;28;20702;-57
2023/10/27 08:18:47;;;;;;;1.30;0.70;;;14.60;99.90;;;;;;5040286;28;20230;-57
2023/10/27 08:21:14;;;;;;;0.90;0.70;;;14.60;99.90;;;;;;5041072;28;20202;-57
2023/10/27 08:23:41;;;;;;;3.37;1.20;;;14.60;99.90;;;;;;5043772;28;20240;-57
2023/10/27 08:26:07;;;;;;;3.67;0.90;;;14.60;99.90;;;;;;5043175;28;20212;-58
2023/10/27 08:28:34;;;;;;;1.00;0.73;;;14.70;99.90;;;;;;5039917;28;20738;-57
2023/10/27 08:31:01;;;;;;;1.10;0.60;;;14.70;99.90;;;;;;5039706;28;20206;-57
2023/10/27 08:33:29;;;;;;;1.73;0.80;;;14.70;99.90;;;;;;5042794;28;20214;-57
2023/10/27 08:36:01;;;;;;;2.00;0.90;;;14.80;99.90;;;;;;5043315;28;20713;-58
2023/10/27 08:38:29;;;;;;;1.77;0.80;;;14.70;99.90;;;;;;5040460;28;20314;-58
2023/10/27 08:40:56;;;;;;;3.30;0.90;;;14.80;99.90;;;;;;5039721;28;20208;-58
2023/10/27 08:43:23;;;;;;;2.40;0.70;;;14.90;99.90;;;;;;5041944;28;20649;-57
2023/10/27 08:45:51;;;;;;;2.60;0.80;;;15.00;99.90;;;;;;5043532;28;20256;-58
2023/10/27 08:48:18;;;;;;;2.33;1.00;;;15.10;99.90;;;;;;5041502;28;20222;-60
2023/10/27 08:50:47;;;;;;;3.17;0.63;;;15.10;99.90;;;;;;5039464;28;20671;-57
2023/10/27 08:53:17;;;;;;;4.27;1.17;;;15.00;99.90;;;;;;5040580;28;20206;-57
2023/10/27 08:55:44;;;;;;;1.83;0.77;;;15.00;99.90;;;;;;5042860;28;20267;-58
2023/10/27 08:58:10;;;;;;;0.80;0.50;;;15.20;99.90;;;;;;5042388;28;20225;-57
2023/10/27 09:00:37;;;;;;;0.90;0.60;;;15.50;99.90;;;;;;5039633;28;20217;-57
2023/10/27 09:03:15;;;;;;;1.90;0.53;;;15.60;99.90;;;;;;5039318;28;20234;-57
2023/10/27 09:05:41;;;;;;;0.90;0.60;;;15.60;99.90;;;;;;5032686;28;20257;-57
2023/10/27 09:08:10;;;;;;;1.57;0.80;;;15.70;99.90;;;;;;5039372;28;20271;-58
2023/10/27 09:10:37;;;;;;;1.17;0.60;;;15.60;99.90;;;;;;5042724;28;20229;-59
2023/10/27 09:13:04;;;;;;;3.85;0.82;;;15.60;99.90;;;;;;5043081;28;20617;-59
2023/10/27 09:15:41;;;;;;;1.42;0.60;;;15.70;99.90;;;;;;5039402;28;20792;-58
2023/10/27 09:18:09;;;;;;;3.40;0.80;;;15.80;99.90;;;;;;5039150;28;20703;-58
2023/10/27 09:20:47;;;;;;;0.60;0.57;;;16.00;99.90;;;;;;5031314;28;20297;-56
2023/10/27 09:23:15;;;;;;;1.77;0.98;;;16.10;99.90;;;;;;5040437;28;20210;-57
2023/10/27 09:25:41;;;;;;;1.60;1.00;;;16.00;99.90;;;;;;5043014;28;20255;-57
2023/10/27 09:28:08;;;;;;;2.83;0.70;;;16.00;99.90;;;;;;5042648;28;20758;-59
2023/10/27 09:30:37;;;;;;;1.80;0.77;;;16.00;99.90;;;;;;5031440;28;20248;-57
2023/10/27 09:33:16;;;;;;;2.33;1.27;;;16.00;99.90;;;;;;5039400;28;20238;-57
2023/10/27 09:35:44;;;;;;;1.60;0.63;;;16.00;99.90;;;;;;5033079;28;20209;-57
2023/10/27 09:38:12;;;;;;;1.10;0.67;;;16.10;99.90;;;;;;5039639;28;20230;-57
2023/10/27 09:40:42;;;;;;;5.30;1.50;;;16.10;99.90;;;;;;5043041;28;20251;-58
2023/10/27 09:43:09;;;;;;;2.70;0.73;;;16.10;99.90;;;;;;5045723;28;20216;-59
2023/10/27 09:45:37;;;;;;;1.85;0.63;;;16.10;99.90;;;;;;5035271;28;20205;-57
2023/10/27 09:48:07;;;;;;;0.90;0.70;;;16.10;99.90;;;;;;5043293;28;20233;-57
2023/10/27 09:50:33;;;;;;;1.27;0.68;;;16.20;99.90;;;;;;5046379;28;20209;-57
2023/10/27 09:53:02;;;;;;;3.00;0.60;;;16.30;99.90;;;;;;5046710;28;20209;-58
2023/10/27 09:55:30;;;;;;;0.68;0.50;;;16.40;99.90;;;;;;5043590;28;20210;-57
2023/10/27 09:58:01;;;;;;;1.93;0.70;;;16.70;99.90;;;;;;5043044;28;20226;-58
2023/10/27 10:00:29;;;;;;;1.00;0.70;;;16.80;99.90;;;;;;5040609;28;20318;-59
2023/10/27 10:02:57;;;;;;;1.40;0.60;;;16.80;99.90;;;;;;5043334;28;20210;-59
2023/10/27 10:05:24;;;;;;;1.73;0.77;;;16.80;99.90;;;;;;5045051;28;20233;-59
2023/10/27 10:07:55;;;;;;;0.70;0.50;;;16.70;99.90;;;;;;5046578;28;20201;-63
2023/10/27 10:10:29;;;;;;;0.57;0.40;;;16.50;99.90;;;;;;5044363;28;20210;-67
2023/10/27 10:13:19;;;;;;;2.40;1.05;;;16.40;99.90;;;;;;5042322;28;20210;-62
2023/10/27 10:15:47;;;;;;;2.90;0.73;;;16.40;99.90;;;;;;5035718;28;20203;-60
2023/10/27 10:18:47;;;;;;;3.28;0.75;;;16.30;99.90;;;;;;5042717;28;20718;-62
2023/10/27 10:21:32;;;;;;;1.27;0.63;;;16.40;99.90;;;;;;5044886;28;20217;-61
2023/10/27 10:24:17;;;;;;;1.60;0.73;;;16.60;99.90;;;;;;5042701;28;20215;-65
2023/10/27 10:27:04;;;;;;;2.50;0.80;;;16.80;99.90;;;;;;5035415;28;20309;-66
2023/10/27 10:29:33;;;;;;;1.13;0.57;;;17.20;99.90;;;;;;5044886;28;20244;-62
2023/10/27 10:32:32;;;;;;;1.40;0.80;;;17.40;99.90;;;;;;5045837;28;20206;-64
2023/10/27 10:35:22;;;;;;;2.42;0.60;;;17.70;99.90;;;;;;5037554;28;20224;-67
2023/10/27 10:37:53;;;;;;;1.65;0.80;;;18.00;99.90;;;;;;5035487;28;20711;-56
2023/10/27 10:40:26;;;;;;;0.88;0.60;;;18.10;99.90;;;;;;5043646;28;20203;-56
2023/10/27 10:43:23;;;;;;;2.85;0.60;;;18.10;99.90;;;;;;5045964;28;20209;-56
2023/10/27 10:45:53;;;;;;;1.80;0.57;;;17.90;99.90;;;;;;5035878;28;20267;-56
2023/10/27 10:48:21;;;;;;;1.95;0.88;;;17.80;99.90;;;;;;5042943;28;20230;-56
2023/10/27 10:50:49;;;;;;;1.13;0.63;;;17.70;99.90;;;;;;5044810;28;20212;-56
2023/10/27 10:53:17;;;;;;;1.95;0.95;;;17.60;99.90;;;;;;5044948;28;20236;-57
2023/10/27 10:55:45;;;;;;;2.42;0.70;;;17.60;99.90;;;;;;5041816;28;20623;-57
2023/10/27 10:58:20;;;;;;;2.75;0.75;;;17.40;99.90;;;;;;5041695;28;20258;-57
2023/10/27 11:00:48;;;;;;;1.95;0.73;;;17.30;99.90;;;;;;5044701;28;20278;-56
2023/10/27 11:03:16;;;;;;;1.15;0.60;;;17.50;99.90;;;;;;5044099;28;20205;-57
2023/10/27 11:05:43;;;;;;;1.30;0.70;;;17.60;99.90;;;;;;5041798;28;20214;-56
2023/10/27 11:08:09;;;;;;;0.88;0.60;;;17.60;99.90;;;;;;5041105;28;20604;-56
2023/10/27 11:10:36;;;;;;;1.27;0.75;;;17.60;99.90;;;;;;5044764;28;20201;-58
2023/10/27 11:13:04;;;;;;;1.80;0.90;;;17.60;99.90;;;;;;5044064;28;20217;-57
2023/10/27 11:15:42;;;;;;;1.73;0.80;;;17.60;99.90;;;;;;5042274;28;20206;-56
2023/10/27 11:18:11;;;;;;;1.67;0.52;;;17.70;99.90;;;;;;5041106;28;20233;-56
2023/10/27 11:20:40;;;;;;;2.00;0.77;;;17.90;99.90;;;;;;5033367;28;20229;-58
2023/10/27 11:23:08;;;;;;;1.52;0.65;;;18.30;99.90;;;;;;5041255;28;20210;-62
2023/10/27 11:25:35;;;;;;;1.48;0.68;;;18.40;99.90;;;;;;5043632;28;20631;-63
2023/10/27 11:28:23;;;;;;;1.45;0.60;;;18.60;99.90;;;;;;5044623;28;20263;-63
2023/10/27 11:31:00;;;;;;;1.55;0.90;;;18.60;99.90;;;;;;5034640;28;20214;-64
2023/10/27 11:33:26;;;;;;;9.13;1.23;;;18.70;99.90;;;;;;5042607;28;20217;-63
2023/10/27 11:35:55;;;;;;;2.67;0.80;;;18.80;99.90;;;;;;5044448;28;20206;-64
2023/10/27 11:38:23;;;;;;;2.85;0.85;;;18.70;99.90;;;;;;5042340;28;20225;-63
2023/10/27 11:40:50;;;;;;;3.35;0.98;;;18.70;99.90;;;;;;5041121;28;20238;-62
2023/10/27 11:43:17;;;;;;;1.98;0.90;;;18.70;99.90;;;;;;5040926;28;20238;-65
2023/10/27 11:45:44;;;;;;;1.23;0.75;;;18.50;99.90;;;;;;5044196;28;20628;-60
2023/10/27 11:48:11;;;;;;;5.45;2.67;;;18.40;99.90;;;;;;5044346;28;20225;-59
2023/10/27 11:50:39;;;;;;;2.90;0.98;;;18.30;99.90;;;;;;5043440;28;20206;-61
2023/10/27 11:53:07;;;;;;;2.45;1.00;;;18.30;99.90;;;;;;5043761;28;20698;-61
2023/10/27 11:55:33;;;;;;;1.70;0.80;;;18.40;99.90;;;;;;5041144;28;20638;-61
2023/10/27 11:58:00;;;;;;;3.13;1.05;;;18.40;99.90;;;;;;5040216;28;20233;-59
2023/10/27 12:00:27;;;;;;;2.35;1.38;;;18.30;99.90;;;;;;5042074;28;20209;-58
2023/10/27 12:02:54;;;;;;;2.95;1.27;;;18.20;99.90;;;;;;5043426;28;20586;-58
2023/10/27 12:05:21;;;;;;;3.38;0.95;;;18.20;99.90;;;;;;5042168;28;20244;-62
2023/10/27 12:07:47;;;;;;;3.83;1.10;;;18.20;99.90;;;;;;5040320;28;20206;-62
2023/10/27 12:10:15;;;;;;;2.35;1.05;;;18.20;99.90;;;;;;5040360;28;20210;-62
2023/10/27 12:12:42;;;;;;;2.83;0.80;;;18.10;99.90;;;;;;5043827;28;20255;-64
2023/10/27 12:15:14;;;;;;;3.67;0.77;;;17.90;99.90;;;;;;5043593;28;20212;-60
2023/10/27 12:17:41;;;;;;;3.85;1.45;;;17.80;99.90;;;;;;5031958;28;20254;-65
2023/10/27 12:20:10;;;;;;;4.90;2.25;;;17.80;99.90;;;;;;5039813;28;20571;-69
2023/10/27 12:22:37;;;;;;;3.50;1.70;;;17.90;99.90;;;;;;5042699;28;20228;-65
2023/10/27 12:25:05;;;;;;;3.17;1.08;;;18.10;99.90;;;;;;5043709;28;20292;-61
2023/10/27 12:27:33;;;;;;;2.95;1.27;;;18.40;99.90;;;;;;5040590;28;20197;-63
2023/10/27 12:30:00;;;;;;;4.82;0.98;;;18.70;99.90;;;;;;5040135;28;20206;-64
2023/10/27 12:32:32;;;;;;;2.78;0.93;;;19.00;99.90;;;;;;5041307;28;20206;-64
2023/10/27 12:34:59;;;;;;;2.95;0.80;;;19.30;99.90;;;;;;5043627;28;20201;-65
2023/10/27 12:37:26;;;;;;;1.23;0.85;;;19.50;99.90;;;;;;5041985;28;20225;-68
2023/10/27 12:39:53;;;;;;;1.40;0.82;;;19.50;99.90;;;;;;5039634;28;20652;-63
2023/10/27 12:42:20;;;;;;;1.52;0.50;;;19.40;99.90;;;;;;5040256;28;20210;-64
2023/10/27 12:44:50;;;;;;;4.53;0.65;;;19.20;99.90;;;;;;5042852;28;20212;-61
2023/10/27 12:47:17;;;;;;;2.50;0.50;;;19.00;99.90;;;;;;5042744;28;20205;-60
2023/10/27 12:49:44;;;;;;;3.97;2.35;;;18.80;99.90;;;;;;5039777;28;20226;-61
2023/10/27 12:52:10;;;;;;;3.45;1.88;;;18.50;99.90;;;;;;5039226;28;20214;-67